sensor_id;sensor_type;location;lat;lon;timestamp;pressure;altitude;pressure_sealevel;temperature;humidity
53868;BME280;41577;47.470;19.080;2022-10-23T16:37:51;100624.97;;;15.47;100.00
53868;BME280;41577;47.470;19.080;2022-10-23T16:38:07;100625.78;;;15.48;100.00
53868;BME280;41577;47.470;19.080;2022-10-23T16:38:24;100625.78;;;15.48;100.00
53868;BME280;41577;47.470;19.080;2022-10-23T16:38:39;100622.28;;;15.47;100.00
53868;BME280;41577;47.470;19.080;2022-10-23T16:38:54;100620.66;;;15.46;100.00
53868;BME280;41577;47.470;19.080;2022-10-23T16:39:28;100622.06;;;15.49;100.00
53868;BME280;41577;47.470;19.080;2022-10-23T16:40:03;100627.47;;;15.49;100.00
53868;BME280;41577;47.470;19.080;2022-10-23T16:40:56;100624.78;;;15.49;100.00
53868;BME280;41577;47.470;19.080;2022-10-23T16:41:30;100620.22;;;15.50;100.00
53868;BME280;41577;47.470;19.080;2022-10-23T16:41:47;100620.22;;;15.50;100.00
53868;BME280;41577;47.470;19.080;2022-10-23T16:42:04;100623.72;;;15.50;100.00
53868;BME280;41577;47.470;19.080;2022-10-23T16:42:51;100613.78;;;15.51;100.00
53868;BME280;41577;47.470;19.080;2022-10-23T16:43:18;100621.84;;;15.51;100.00
53868;BME280;41577;47.470;19.080;2022-10-23T16:43:42;100613.56;;;15.52;100.00
53868;BME280;41577;47.470;19.080;2022-10-23T16:44:14;100607.38;;;15.52;100.00
53868;BME280;41577;47.470;19.080;2022-10-23T16:44:40;100624.34;;;15.52;100.00
53868;BME280;41577;47.470;19.080;2022-10-23T16:44:54;100614.38;;;15.53;100.00
53868;BME280;41577;47.470;19.080;2022-10-23T16:45:09;100613.56;;;15.52;100.00
53868;BME280;41577;47.470;19.080;2022-10-23T16:45:23;100613.56;;;15.52;100.00
53868;BME280;41577;47.470;19.080;2022-10-23T16:45:37;100615.44;;;15.52;100.00
53868;BME280;41577;47.470;19.080;2022-10-23T16:46:00;100607.38;;;15.52;100.00
53868;BME280;41577;47.470;19.080;2022-10-23T16:46:16;100606.31;;;15.53;100.00
53868;BME280;41577;47.470;19.080;2022-10-23T16:46:30;100609.84;;;15.53;100.00
53868;BME280;41577;47.470;19.080;2022-10-23T16:46:46;100605.50;;;15.52;100.00
53868;BME280;41577;47.470;19.080;2022-10-23T16:46:59;100607.16;;;15.53;100.00
53868;BME280;41577;47.470;19.080;2022-10-23T16:47:13;100607.97;;;15.54;100.00
53868;BME280;41577;47.470;19.080;2022-10-23T16:47:29;100609.00;;;15.53;100.00
53868;BME280;41577;47.470;19.080;2022-10-23T16:47:43;100610.66;;;15.54;100.00
53868;BME280;41577;47.470;19.080;2022-10-23T16:47:57;100601.78;;;15.53;100.00
53868;BME280;41577;47.470;19.080;2022-10-23T16:48:11;100611.50;;;15.54;100.00
53868;BME280;41577;47.470;19.080;2022-10-23T16:48:24;100606.09;;;15.54;100.00
53868;BME280;41577;47.470;19.080;2022-10-23T16:48:40;100608.78;;;15.54;100.00
53868;BME280;41577;47.470;19.080;2022-10-23T16:48:54;100605.06;;;15.55;100.00
53868;BME280;41577;47.470;19.080;2022-10-23T16:49:08;100602.34;;;15.55;100.00
53868;BME280;41577;47.470;19.080;2022-10-23T16:49:22;100607.75;;;15.55;100.00
53868;BME280;41577;47.470;19.080;2022-10-23T16:49:36;100607.75;;;15.55;100.00
53868;BME280;41577;47.470;19.080;2022-10-23T16:49:49;100605.91;;;15.56;100.00
53868;BME280;41577;47.470;19.080;2022-10-23T16:50:03;100609.41;;;15.56;100.00
53868;BME280;41577;47.470;19.080;2022-10-23T16:50:18;100600.53;;;15.56;100.00
53868;BME280;41577;47.470;19.080;2022-10-23T16:50:32;100603.81;;;15.58;100.00
53868;BME280;41577;47.470;19.080;2022-10-23T16:50:46;100602.78;;;15.59;100.00
53868;BME280;41577;47.470;19.080;2022-10-23T16:51:04;100600.09;;;15.59;100.00
53868;BME280;41577;47.470;19.080;2022-10-23T16:51:20;100604.41;;;15.60;100.00
53868;BME280;41577;47.470;19.080;2022-10-23T16:51:37;100601.72;;;15.60;100.00
53868;BME280;41577;47.470;19.080;2022-10-23T16:51:51;100600.69;;;15.61;100.00
53868;BME280;41577;47.470;19.080;2022-10-23T16:52:05;100605.25;;;15.60;100.00
53868;BME280;41577;47.470;19.080;2022-10-23T16:52:19;100603.38;;;15.61;100.00
53868;BME280;41577;47.470;19.080;2022-10-23T16:52:34;100607.72;;;15.62;100.00
53868;BME280;41577;47.470;19.080;2022-10-23T16:52:50;100610.41;;;15.62;100.00
53868;BME280;41577;47.470;19.080;2022-10-23T16:53:04;100608.56;;;15.62;100.00
53868;BME280;41577;47.470;19.080;2022-10-23T16:53:18;100603.19;;;15.62;100.00
53868;BME280;41577;47.470;19.080;2022-10-23T16:53:34;100605.88;;;15.62;100.00
53868;BME280;41577;47.470;19.080;2022-10-23T16:53:49;100601.31;;;15.63;100.00
53868;BME280;41577;47.470;19.080;2022-10-23T16:54:05;100610.22;;;15.63;100.00
53868;BME280;41577;47.470;19.080;2022-10-23T16:54:19;100604.00;;;15.63;100.00
53868;BME280;41577;47.470;19.080;2022-10-23T16:54:33;100609.38;;;15.63;99.92
53868;BME280;41577;47.470;19.080;2022-10-23T16:54:48;100602.34;;;15.62;100.00
53868;BME280;41577;47.470;19.080;2022-10-23T16:55:05;100602.34;;;15.62;99.87
53868;BME280;41577;47.470;19.080;2022-10-23T16:55:19;100597.81;;;15.62;99.48
53868;BME280;41577;47.470;19.080;2022-10-23T16:55:34;100598.63;;;15.63;99.74
53868;BME280;41577;47.470;19.080;2022-10-23T16:55:54;100595.94;;;15.63;99.90
53868;BME280;41577;47.470;19.080;2022-10-23T16:56:09;100604.00;;;15.63;99.64
53868;BME280;41577;47.470;19.080;2022-10-23T16:56:27;100608.56;;;15.62;99.27
53868;BME280;41577;47.470;19.080;2022-10-23T16:56:43;100601.31;;;15.63;99.46
53868;BME280;41577;47.470;19.080;2022-10-23T16:56:57;100597.81;;;15.62;99.72
53868;BME280;41577;47.470;19.080;2022-10-23T16:57:11;100607.50;;;15.63;99.73
53868;BME280;41577;47.470;19.080;2022-10-23T16:57:26;100604.81;;;15.63;98.93
53868;BME280;41577;47.470;19.080;2022-10-23T16:57:41;100609.16;;;15.64;98.90
53868;BME280;41577;47.470;19.080;2022-10-23T16:57:56;100612.09;;;15.63;99.44
53868;BME280;41577;47.470;19.080;2022-10-23T16:58:15;100610.81;;;15.65;98.95
53868;BME280;41577;47.470;19.080;2022-10-23T16:58:30;100618.91;;;15.65;98.69
53868;BME280;41577;47.470;19.080;2022-10-23T16:58:46;100613.50;;;15.65;98.86
53868;BME280;41577;47.470;19.080;2022-10-23T16:59:04;100619.50;;;15.67;99.07
53868;BME280;41577;47.470;19.080;2022-10-23T16:59:22;100624.66;;;15.69;98.70
53868;BME280;41577;47.470;19.080;2022-10-23T16:59:41;100620.34;;;15.68;98.59
53868;BME280;41577;47.470;19.080;2022-10-23T16:59:57;100625.50;;;15.69;97.85
53868;BME280;41577;47.470;19.080;2022-10-23T17:00:13;100619.09;;;15.71;98.04
53868;BME280;41577;47.470;19.080;2022-10-23T17:00:31;100627.19;;;15.71;97.78
53868;BME280;41577;47.470;19.080;2022-10-23T17:00:58;100623.84;;;15.68;97.93
53868;BME280;41577;47.470;19.080;2022-10-23T17:01:15;100622.81;;;15.69;98.25
53868;BME280;41577;47.470;19.080;2022-10-23T17:01:30;100625.50;;;15.69;98.27
53868;BME280;41577;47.470;19.080;2022-10-23T17:01:45;100628.22;;;15.69;98.01
53868;BME280;41577;47.470;19.080;2022-10-23T17:02:05;100630.69;;;15.71;98.23
53868;BME280;41577;47.470;19.080;2022-10-23T17:02:20;100621.81;;;15.71;97.83
53868;BME280;41577;47.470;19.080;2022-10-23T17:02:36;100632.56;;;15.71;97.99
53868;BME280;41577;47.470;19.080;2022-10-23T17:02:51;100629.03;;;15.70;98.07
53868;BME280;41577;47.470;19.080;2022-10-23T17:03:08;100627.59;;;15.74;98.06
53868;BME280;41577;47.470;19.080;2022-10-23T17:03:24;100627.59;;;15.74;97.46
53868;BME280;41577;47.470;19.080;2022-10-23T17:03:40;100623.22;;;15.73;97.77
53868;BME280;41577;47.470;19.080;2022-10-23T17:03:56;100631.09;;;15.75;97.83
53868;BME280;41577;47.470;19.080;2022-10-23T17:04:11;100629.47;;;15.74;97.46
53868;BME280;41577;47.470;19.080;2022-10-23T17:04:27;100627.59;;;15.74;97.79
53868;BME280;41577;47.470;19.080;2022-10-23T17:04:44;100632.09;;;15.80;97.14
53868;BME280;41577;47.470;19.080;2022-10-23T17:05:03;100624.88;;;15.81;97.25
53868;BME280;41577;47.470;19.080;2022-10-23T17:05:19;100623.44;;;15.78;96.94
53868;BME280;41577;47.470;19.080;2022-10-23T17:05:34;100629.66;;;15.79;97.58
53868;BME280;41577;47.470;19.080;2022-10-23T17:05:49;100627.16;;;15.77;97.17
53868;BME280;41577;47.470;19.080;2022-10-23T17:06:09;100625.53;;;15.76;96.81
53868;BME280;41577;47.470;19.080;2022-10-23T17:06:29;100621.97;;;15.76;97.00
53868;BME280;41577;47.470;19.080;2022-10-23T17:06:44;100632.75;;;15.76;96.69
53868;BME280;41577;47.470;19.080;2022-10-23T17:06:58;100629.22;;;15.75;96.98
53868;BME280;41577;47.470;19.080;2022-10-23T17:07:13;100629.22;;;15.75;96.62
53868;BME280;41577;47.470;19.080;2022-10-23T17:07:29;100628.41;;;15.75;96.62
53868;BME280;41577;47.470;19.080;2022-10-23T17:07:44;100632.75;;;15.76;96.16
53868;BME280;41577;47.470;19.080;2022-10-23T17:08:02;100627.59;;;15.74;96.69
53868;BME280;41577;47.470;19.080;2022-10-23T17:08:17;100636.50;;;15.75;96.89
53868;BME280;41577;47.470;19.080;2022-10-23T17:08:33;100636.50;;;15.75;96.70
53868;BME280;41577;47.470;19.080;2022-10-23T17:08:53;100639.81;;;15.77;96.63
53868;BME280;41577;47.470;19.080;2022-10-23T17:09:07;100640.81;;;15.76;96.17
53868;BME280;41577;47.470;19.080;2022-10-23T17:09:23;100633.81;;;15.75;96.27
53868;BME280;41577;47.470;19.080;2022-10-23T17:09:42;100633.81;;;15.75;96.96
53868;BME280;41577;47.470;19.080;2022-10-23T17:10:00;100640.81;;;15.76;96.77
53868;BME280;41577;47.470;19.080;2022-10-23T17:10:23;100636.06;;;15.78;96.95
53868;BME280;41577;47.470;19.080;2022-10-23T17:10:38;100638.75;;;15.78;96.31
53868;BME280;41577;47.470;19.080;2022-10-23T17:11:10;100640.81;;;15.76;96.24
53868;BME280;41577;47.470;19.080;2022-10-23T17:11:41;100639.19;;;15.75;96.52
53868;BME280;41577;47.470;19.080;2022-10-23T17:12:06;100641.88;;;15.75;96.69
53868;BME280;41577;47.470;19.080;2022-10-23T17:12:25;100636.50;;;15.75;96.89
53868;BME280;41577;47.470;19.080;2022-10-23T17:12:42;100642.09;;;15.73;97.23
53868;BME280;41577;47.470;19.080;2022-10-23T17:13:01;100640.44;;;15.72;96.96
53868;BME280;41577;47.470;19.080;2022-10-23T17:13:20;100635.06;;;15.72;97.12
53868;BME280;41577;47.470;19.080;2022-10-23T17:13:38;100645.84;;;15.72;97.31
53868;BME280;41577;47.470;19.080;2022-10-23T17:13:57;100636.28;;;15.69;97.58
53868;BME280;41577;47.470;19.080;2022-10-23T17:14:17;100639.78;;;15.70;97.20
53868;BME280;41577;47.470;19.080;2022-10-23T17:14:33;100635.44;;;15.69;97.17
53868;BME280;41577;47.470;19.080;2022-10-23T17:14:51;100637.09;;;15.70;96.87
53868;BME280;41577;47.470;19.080;2022-10-23T17:15:08;100641.66;;;15.69;97.35
53868;BME280;41577;47.470;19.080;2022-10-23T17:15:24;100641.06;;;15.67;96.69
53868;BME280;41577;47.470;19.080;2022-10-23T17:15:52;100640.00;;;15.68;96.64
53868;BME280;41577;47.470;19.080;2022-10-23T17:16:28;100638.13;;;15.69;97.27
53868;BME280;41577;47.470;19.080;2022-10-23T17:16:45;100638.13;;;15.69;97.47
53868;BME280;41577;47.470;19.080;2022-10-23T17:17:02;100634.00;;;15.66;97.51
53868;BME280;41577;47.470;19.080;2022-10-23T17:17:23;100635.66;;;15.67;97.13
53868;BME280;41577;47.470;19.080;2022-10-23T17:17:41;100636.69;;;15.66;97.37
53868;BME280;41577;47.470;19.080;2022-10-23T17:18:02;100634.00;;;15.66;97.03
53868;BME280;41577;47.470;19.080;2022-10-23T17:18:18;100632.38;;;15.65;97.43
53868;BME280;41577;47.470;19.080;2022-10-23T17:18:36;100632.16;;;15.67;97.47
53868;BME280;41577;47.470;19.080;2022-10-23T17:18:52;100625.94;;;15.66;97.48
53868;BME280;41577;47.470;19.080;2022-10-23T17:19:12;100626.97;;;15.65;97.22
53868;BME280;41577;47.470;19.080;2022-10-23T17:19:30;100629.47;;;15.67;97.00
53868;BME280;41577;47.470;19.080;2022-10-23T17:19:50;100629.66;;;15.65;97.83
53868;BME280;41577;47.470;19.080;2022-10-23T17:20:10;100631.53;;;15.65;97.46
53868;BME280;41577;47.470;19.080;2022-10-23T17:20:28;100632.56;;;15.64;97.26
53868;BME280;41577;47.470;19.080;2022-10-23T17:20:44;100635.06;;;15.65;97.33
53868;BME280;41577;47.470;19.080;2022-10-23T17:20:58;100623.47;;;15.65;97.97
53868;BME280;41577;47.470;19.080;2022-10-23T17:21:15;100625.31;;;15.64;97.54
53868;BME280;41577;47.470;19.080;2022-10-23T17:21:34;100623.47;;;15.65;97.27
53868;BME280;41577;47.470;19.080;2022-10-23T17:21:52;100634.22;;;15.65;97.59
53868;BME280;41577;47.470;19.080;2022-10-23T17:22:07;100628.00;;;15.64;97.54
53868;BME280;41577;47.470;19.080;2022-10-23T17:22:23;100628.00;;;15.64;97.62
53868;BME280;41577;47.470;19.080;2022-10-23T17:22:37;100630.69;;;15.64;97.92
53868;BME280;41577;47.470;19.080;2022-10-23T17:22:53;100629.66;;;15.65;97.76
53868;BME280;41577;47.470;19.080;2022-10-23T17:23:11;100626.16;;;15.65;97.63
53868;BME280;41577;47.470;19.080;2022-10-23T17:23:27;100627.19;;;15.64;97.45
53868;BME280;41577;47.470;19.080;2022-10-23T17:23:43;100630.69;;;15.64;97.32
53868;BME280;41577;47.470;19.080;2022-10-23T17:23:58;100626.97;;;15.65;97.92
53868;BME280;41577;47.470;19.080;2022-10-23T17:24:16;100631.53;;;15.65;97.84
53868;BME280;41577;47.470;19.080;2022-10-23T17:24:34;100629.06;;;15.63;98.15
53868;BME280;41577;47.470;19.080;2022-10-23T17:24:48;100640.66;;;15.64;97.60
53868;BME280;41577;47.470;19.080;2022-10-23T17:25:11;100623.66;;;15.63;97.58
53868;BME280;41577;47.470;19.080;2022-10-23T17:25:25;100631.75;;;15.63;97.80
53868;BME280;41577;47.470;19.080;2022-10-23T17:25:41;100626.56;;;15.62;97.96
53868;BME280;41577;47.470;19.080;2022-10-23T17:25:56;100621.59;;;15.65;98.03
53868;BME280;41577;47.470;19.080;2022-10-23T17:26:14;100632.97;;;15.67;97.65
53868;BME280;41577;47.470;19.080;2022-10-23T17:26:29;100624.91;;;15.67;97.51
53868;BME280;41577;47.470;19.080;2022-10-23T17:26:48;100621.38;;;15.67;97.64
53868;BME280;41577;47.470;19.080;2022-10-23T17:27:04;100621.59;;;15.65;97.56
53868;BME280;41577;47.470;19.080;2022-10-23T17:27:19;100626.78;;;15.67;97.92
53868;BME280;41577;47.470;19.080;2022-10-23T17:27:34;100626.78;;;15.67;97.95
53868;BME280;41577;47.470;19.080;2022-10-23T17:27:48;100622.41;;;15.66;97.22
53868;BME280;41577;47.470;19.080;2022-10-23T17:28:04;100624.28;;;15.65;97.75
53868;BME280;41577;47.470;19.080;2022-10-23T17:28:20;100621.59;;;15.65;97.89
53868;BME280;41577;47.470;19.080;2022-10-23T17:28:37;100626.16;;;15.65;97.55
53868;BME280;41577;47.470;19.080;2022-10-23T17:28:55;100618.69;;;15.67;97.41
53868;BME280;41577;47.470;19.080;2022-10-23T17:29:12;100621.38;;;15.67;97.92
53868;BME280;41577;47.470;19.080;2022-10-23T17:29:34;100622.41;;;15.66;98.03
53868;BME280;41577;47.470;19.080;2022-10-23T17:29:49;100621.59;;;15.65;97.84
53868;BME280;41577;47.470;19.080;2022-10-23T17:30:04;100621.59;;;15.65;97.62
53868;BME280;41577;47.470;19.080;2022-10-23T17:30:19;100615.59;;;15.63;97.78
53868;BME280;41577;47.470;19.080;2022-10-23T17:30:36;100619.34;;;15.62;98.28
53868;BME280;41577;47.470;19.080;2022-10-23T17:30:52;100612.09;;;15.63;98.05
53868;BME280;41577;47.470;19.080;2022-10-23T17:31:14;100607.50;;;15.63;97.83
53868;BME280;41577;47.470;19.080;2022-10-23T17:31:31;100622.84;;;15.63;98.10
53868;BME280;41577;47.470;19.080;2022-10-23T17:31:47;100609.38;;;15.63;98.10
53868;BME280;41577;47.470;19.080;2022-10-23T17:32:04;100613.97;;;15.62;98.12
53868;BME280;41577;47.470;19.080;2022-10-23T17:32:19;100612.28;;;15.61;98.10
53868;BME280;41577;47.470;19.080;2022-10-23T17:32:36;100614.16;;;15.61;98.15
53868;BME280;41577;47.470;19.080;2022-10-23T17:32:55;100608.78;;;15.61;97.99
53868;BME280;41577;47.470;19.080;2022-10-23T17:33:11;100612.28;;;15.61;98.53
53868;BME280;41577;47.470;19.080;2022-10-23T17:33:27;100608.16;;;15.59;98.72
53868;BME280;41577;47.470;19.080;2022-10-23T17:33:47;100604.66;;;15.58;98.66
53868;BME280;41577;47.470;19.080;2022-10-23T17:34:06;100613.53;;;15.59;98.58
53868;BME280;41577;47.470;19.080;2022-10-23T17:34:24;100614.59;;;15.58;98.00
53868;BME280;41577;47.470;19.080;2022-10-23T17:34:39;100611.91;;;15.58;98.26
53868;BME280;41577;47.470;19.080;2022-10-23T17:34:58;100613.53;;;15.59;98.69
53868;BME280;41577;47.470;19.080;2022-10-23T17:35:14;100613.75;;;15.57;98.89
53868;BME280;41577;47.470;19.080;2022-10-23T17:35:34;100611.06;;;15.57;98.64
53868;BME280;41577;47.470;19.080;2022-10-23T17:35:51;100610.03;;;15.58;98.45
53868;BME280;41577;47.470;19.080;2022-10-23T17:36:08;100611.06;;;15.57;98.74
53868;BME280;41577;47.470;19.080;2022-10-23T17:36:25;100612.72;;;15.58;98.79
53868;BME280;41577;47.470;19.080;2022-10-23T17:36:40;100614.38;;;15.59;98.25
53868;BME280;41577;47.470;19.080;2022-10-23T17:36:57;100606.28;;;15.59;98.37
53868;BME280;41577;47.470;19.080;2022-10-23T17:37:11;100607.34;;;15.58;98.02
53868;BME280;41577;47.470;19.080;2022-10-23T17:37:27;100613.53;;;15.59;98.04
53868;BME280;41577;47.470;19.080;2022-10-23T17:37:43;100610.84;;;15.59;98.18
53868;BME280;41577;47.470;19.080;2022-10-23T17:37:58;100618.94;;;15.59;98.13
53868;BME280;41577;47.470;19.080;2022-10-23T17:38:20;100611.91;;;15.58;98.49
53868;BME280;41577;47.470;19.080;2022-10-23T17:38:58;100611.91;;;15.58;98.18
53868;BME280;41577;47.470;19.080;2022-10-23T17:39:17;100613.75;;;15.57;98.64
53868;BME280;41577;47.470;19.080;2022-10-23T17:39:40;100611.06;;;15.57;99.04
53868;BME280;41577;47.470;19.080;2022-10-23T17:39:58;100611.06;;;15.57;98.74
53868;BME280;41577;47.470;19.080;2022-10-23T17:40:17;100610.22;;;15.57;98.33
53868;BME280;41577;47.470;19.080;2022-10-23T17:40:37;100612.09;;;15.56;99.07
53868;BME280;41577;47.470;19.080;2022-10-23T17:40:53;100608.59;;;15.56;99.22
53868;BME280;41577;47.470;19.080;2022-10-23T17:41:11;100613.97;;;15.56;99.46
53868;BME280;41577;47.470;19.080;2022-10-23T17:41:29;100610.44;;;15.55;98.85
53868;BME280;41577;47.470;19.080;2022-10-23T17:41:45;100615.81;;;15.55;99.37
53868;BME280;41577;47.470;19.080;2022-10-23T17:42:05;100610.66;;;15.54;98.75
53868;BME280;41577;47.470;19.080;2022-10-23T17:42:19;100615.25;;;15.53;99.25
53868;BME280;41577;47.470;19.080;2022-10-23T17:42:33;100615.25;;;15.53;99.27
53868;BME280;41577;47.470;19.080;2022-10-23T17:42:48;100614.38;;;15.53;99.55
53868;BME280;41577;47.470;19.080;2022-10-23T17:43:04;100615.25;;;15.53;98.93
53868;BME280;41577;47.470;19.080;2022-10-23T17:43:24;100617.94;;;15.53;99.24
53868;BME280;41577;47.470;19.080;2022-10-23T17:43:41;100616.47;;;15.51;99.09
53868;BME280;41577;47.470;19.080;2022-10-23T17:43:59;100625.16;;;15.53;99.25
53868;BME280;41577;47.470;19.080;2022-10-23T17:44:18;100620.00;;;15.51;99.37
53868;BME280;41577;47.470;19.080;2022-10-23T17:44:36;100625.16;;;15.53;99.05
53868;BME280;41577;47.470;19.080;2022-10-23T17:44:51;100616.47;;;15.51;98.98
53868;BME280;41577;47.470;19.080;2022-10-23T17:45:07;100620.00;;;15.51;98.83
53868;BME280;41577;47.470;19.080;2022-10-23T17:45:24;100612.94;;;15.50;99.08
53868;BME280;41577;47.470;19.080;2022-10-23T17:45:41;100611.94;;;15.51;99.54
53868;BME280;41577;47.470;19.080;2022-10-23T17:45:58;100624.34;;;15.52;99.60
53868;BME280;41577;47.470;19.080;2022-10-23T17:46:14;100619.16;;;15.51;99.25
53868;BME280;41577;47.470;19.080;2022-10-23T17:46:31;100611.94;;;15.51;99.33
53868;BME280;41577;47.470;19.080;2022-10-23T17:46:49;100621.84;;;15.51;99.25
53868;BME280;41577;47.470;19.080;2022-10-23T17:47:06;100616.47;;;15.51;99.25
53868;BME280;41577;47.470;19.080;2022-10-23T17:47:23;100612.53;;;15.53;99.41
53868;BME280;41577;47.470;19.080;2022-10-23T17:47:38;100611.06;;;15.51;99.37
53868;BME280;41577;47.470;19.080;2022-10-23T17:47:53;100606.53;;;15.51;99.61
53868;BME280;41577;47.470;19.080;2022-10-23T17:48:12;100602.19;;;15.50;99.84
53868;BME280;41577;47.470;19.080;2022-10-23T17:48:30;100604.06;;;15.50;99.78
53868;BME280;41577;47.470;19.080;2022-10-23T17:48:44;100606.53;;;15.51;99.87
53868;BME280;41577;47.470;19.080;2022-10-23T17:49:02;100599.50;;;15.50;99.57
53868;BME280;41577;47.470;19.080;2022-10-23T17:49:20;100608.63;;;15.49;99.74
53868;BME280;41577;47.470;19.080;2022-10-23T17:49:38;100606.75;;;15.50;99.78
53868;BME280;41577;47.470;19.080;2022-10-23T17:49:51;100602.38;;;15.48;99.44
53868;BME280;41577;47.470;19.080;2022-10-23T17:50:07;100602.19;;;15.50;99.89
53868;BME280;41577;47.470;19.080;2022-10-23T17:50:24;100602.19;;;15.50;99.46
53868;BME280;41577;47.470;19.080;2022-10-23T17:50:40;100598.66;;;15.50;99.94
53868;BME280;41577;47.470;19.080;2022-10-23T17:51:01;100603.22;;;15.49;99.70
53868;BME280;41577;47.470;19.080;2022-10-23T17:51:17;100602.38;;;15.48;99.88
53868;BME280;41577;47.470;19.080;2022-10-23T17:51:34;100604.25;;;15.48;100.00
53868;BME280;41577;47.470;19.080;2022-10-23T17:51:50;100600.75;;;15.47;99.77
53868;BME280;41577;47.470;19.080;2022-10-23T17:52:05;100601.56;;;15.48;99.75
53868;BME280;41577;47.470;19.080;2022-10-23T17:52:19;100605.31;;;15.47;99.60
53868;BME280;41577;47.470;19.080;2022-10-23T17:52:33;100599.94;;;15.47;99.68
53868;BME280;41577;47.470;19.080;2022-10-23T17:52:52;100599.09;;;15.46;100.00
53868;BME280;41577;47.470;19.080;2022-10-23T17:53:09;100595.56;;;15.46;100.00
53868;BME280;41577;47.470;19.080;2022-10-23T17:53:29;100598.25;;;15.46;100.00
53868;BME280;41577;47.470;19.080;2022-10-23T17:53:51;100598.25;;;15.46;100.00
53868;BME280;41577;47.470;19.080;2022-10-23T17:54:09;100595.56;;;15.46;100.00
53868;BME280;41577;47.470;19.080;2022-10-23T17:54:28;100592.88;;;15.46;100.00
53868;BME280;41577;47.470;19.080;2022-10-23T17:54:50;100590.41;;;15.44;100.00
53868;BME280;41577;47.470;19.080;2022-10-23T17:55:06;100593.13;;;15.44;99.86
53868;BME280;41577;47.470;19.080;2022-10-23T17:55:20;100590.41;;;15.44;99.93
53868;BME280;41577;47.470;19.080;2022-10-23T17:55:37;100588.53;;;15.45;100.00
53868;BME280;41577;47.470;19.080;2022-10-23T17:55:51;100588.53;;;15.45;99.97
53868;BME280;41577;47.470;19.080;2022-10-23T17:56:07;100589.56;;;15.44;100.00
53868;BME280;41577;47.470;19.080;2022-10-23T17:56:23;100588.75;;;15.43;100.00
53868;BME280;41577;47.470;19.080;2022-10-23T17:56:37;100586.88;;;15.44;100.00
53868;BME280;41577;47.470;19.080;2022-10-23T17:56:54;100589.56;;;15.44;100.00
53868;BME280;41577;47.470;19.080;2022-10-23T17:57:09;100594.13;;;15.43;100.00
53868;BME280;41577;47.470;19.080;2022-10-23T17:57:26;100588.53;;;15.45;100.00
53868;BME280;41577;47.470;19.080;2022-10-23T17:57:41;100591.25;;;15.45;100.00
53868;BME280;41577;47.470;19.080;2022-10-23T17:57:56;100591.44;;;15.43;100.00
53868;BME280;41577;47.470;19.080;2022-10-23T17:58:11;100593.31;;;15.43;100.00
53868;BME280;41577;47.470;19.080;2022-10-23T17:58:28;100594.94;;;15.44;100.00
53868;BME280;41577;47.470;19.080;2022-10-23T17:58:42;100583.59;;;15.42;100.00
53868;BME280;41577;47.470;19.080;2022-10-23T17:58:59;100584.41;;;15.42;100.00
53868;BME280;41577;47.470;19.080;2022-10-23T17:59:15;100587.94;;;15.43;100.00
53868;BME280;41577;47.470;19.080;2022-10-23T17:59:31;100588.75;;;15.43;100.00
53868;BME280;41577;47.470;19.080;2022-10-23T17:59:45;100589.81;;;15.42;100.00
53868;BME280;41577;47.470;19.080;2022-10-23T17:59:59;100592.50;;;15.42;100.00
53868;BME280;41577;47.470;19.080;2022-10-23T18:00:14;100594.13;;;15.43;100.00
53868;BME280;41577;47.470;19.080;2022-10-23T18:00:29;100596.22;;;15.41;100.00
53868;BME280;41577;47.470;19.080;2022-10-23T18:00:45;100600.56;;;15.42;100.00
53868;BME280;41577;47.470;19.080;2022-10-23T18:01:03;100592.50;;;15.42;100.00
53868;BME280;41577;47.470;19.080;2022-10-23T18:01:21;100595.19;;;15.42;100.00
53868;BME280;41577;47.470;19.080;2022-10-23T18:01:37;100590.81;;;15.41;100.00
53868;BME280;41577;47.470;19.080;2022-10-23T18:01:52;100592.69;;;15.41;100.00
53868;BME280;41577;47.470;19.080;2022-10-23T18:02:09;100595.38;;;15.41;100.00
53868;BME280;41577;47.470;19.080;2022-10-23T18:02:26;100598.06;;;15.41;100.00
53868;BME280;41577;47.470;19.080;2022-10-23T18:02:42;100595.38;;;15.41;100.00
53868;BME280;41577;47.470;19.080;2022-10-23T18:02:57;100591.88;;;15.40;100.00
53868;BME280;41577;47.470;19.080;2022-10-23T18:03:14;100583.81;;;15.40;100.00
53868;BME280;41577;47.470;19.080;2022-10-23T18:03:29;100590.00;;;15.41;100.00
53868;BME280;41577;47.470;19.080;2022-10-23T18:03:43;100589.19;;;15.40;100.00
53868;BME280;41577;47.470;19.080;2022-10-23T18:04:00;100591.06;;;15.40;100.00
53868;BME280;41577;47.470;19.080;2022-10-23T18:04:17;100587.50;;;15.39;100.00
53868;BME280;41577;47.470;19.080;2022-10-23T18:04:32;100590.22;;;15.39;100.00
53868;BME280;41577;47.470;19.080;2022-10-23T18:04:48;100593.75;;;15.40;100.00
53868;BME280;41577;47.470;19.080;2022-10-23T18:05:03;100588.38;;;15.40;100.00
53868;BME280;41577;47.470;19.080;2022-10-23T18:05:20;100592.91;;;15.39;100.00
53868;BME280;41577;47.470;19.080;2022-10-23T18:05:37;100588.38;;;15.40;100.00
53868;BME280;41577;47.470;19.080;2022-10-23T18:05:51;100588.38;;;15.40;100.00
53868;BME280;41577;47.470;19.080;2022-10-23T18:06:06;100586.69;;;15.39;100.00
53868;BME280;41577;47.470;19.080;2022-10-23T18:06:22;100590.44;;;15.38;100.00
53868;BME280;41577;47.470;19.080;2022-10-23T18:06:42;100587.75;;;15.38;100.00